Terminal Aerodrome Forecast
Issued by NWS Raleigh/Durham, NC

Current Version | Previous Version | Text Only | Print | Product List | Glossary On
Versions: 1 2 3 4 5 6 7 8 9 10 11 12 13 14 15 16 17 18 19 20 21 22 23 24 25 26 27 28 29 30 31 32 33 34 35 36 37 38 39 40
000
FTUS42 KRAH 231429 AAA
TAFGSO
TAF AMD
KGSO 231429Z 2314/2412 03005KT P6SM SCT040 BKN100
      TEMPO 2318/2322 3SM -TSRA BKN025CB
     FM240300 07007KT P6SM FEW030 BKN120
     FM240800 08007KT 4SM BR OVC007=

USA.gov is the U.S. government's official web portal to all federal, state and local government web resources and services.